sensor_id;sensor_type;location;lat;lon;timestamp;P1;durP1;ratioP1;P2;durP2;ratioP2
9270;SDS011;4673;53.458;9.940;2023-02-28T00:00:19;2.17;;;2.17;;
9270;SDS011;4673;53.458;9.940;2023-02-28T00:02:45;2.43;;;2.43;;
9270;SDS011;4673;53.458;9.940;2023-02-28T00:05:12;2.87;;;2.87;;
9270;SDS011;4673;53.458;9.940;2023-02-28T00:07:41;2.50;;;2.50;;
9270;SDS011;4673;53.458;9.940;2023-02-28T00:10:08;3.00;;;3.00;;
9270;SDS011;4673;53.458;9.940;2023-02-28T00:12:35;2.80;;;2.80;;
9270;SDS011;4673;53.458;9.940;2023-02-28T00:15:02;2.33;;;2.33;;
9270;SDS011;4673;53.458;9.940;2023-02-28T00:17:30;2.30;;;2.30;;
9270;SDS011;4673;53.458;9.940;2023-02-28T00:19:56;3.00;;;3.00;;
9270;SDS011;4673;53.458;9.940;2023-02-28T00:22:26;2.30;;;2.30;;
9270;SDS011;4673;53.458;9.940;2023-02-28T00:24:52;2.50;;;2.50;;
9270;SDS011;4673;53.458;9.940;2023-02-28T00:27:18;2.20;;;2.20;;
9270;SDS011;4673;53.458;9.940;2023-02-28T00:29:45;2.17;;;2.17;;
9270;SDS011;4673;53.458;9.940;2023-02-28T00:32:11;2.43;;;2.43;;
9270;SDS011;4673;53.458;9.940;2023-02-28T00:34:38;2.13;;;2.13;;
9270;SDS011;4673;53.458;9.940;2023-02-28T00:37:07;1.97;;;1.97;;
9270;SDS011;4673;53.458;9.940;2023-02-28T00:39:37;1.60;;;1.60;;
9270;SDS011;4673;53.458;9.940;2023-02-28T00:42:03;2.40;;;2.40;;
9270;SDS011;4673;53.458;9.940;2023-02-28T00:44:30;2.07;;;2.07;;
9270;SDS011;4673;53.458;9.940;2023-02-28T00:46:56;2.00;;;2.00;;
9270;SDS011;4673;53.458;9.940;2023-02-28T00:49:22;1.83;;;1.83;;
9270;SDS011;4673;53.458;9.940;2023-02-28T00:51:48;1.60;;;1.60;;
9270;SDS011;4673;53.458;9.940;2023-02-28T00:54:14;2.23;;;2.23;;
9270;SDS011;4673;53.458;9.940;2023-02-28T00:56:41;1.87;;;1.87;;
9270;SDS011;4673;53.458;9.940;2023-02-28T00:59:06;1.70;;;1.70;;
9270;SDS011;4673;53.458;9.940;2023-02-28T01:01:32;1.70;;;1.70;;
9270;SDS011;4673;53.458;9.940;2023-02-28T01:03:58;1.53;;;1.53;;
9270;SDS011;4673;53.458;9.940;2023-02-28T01:06:24;1.90;;;1.90;;
9270;SDS011;4673;53.458;9.940;2023-02-28T01:08:49;2.03;;;2.03;;
9270;SDS011;4673;53.458;9.940;2023-02-28T01:11:16;1.73;;;1.73;;
9270;SDS011;4673;53.458;9.940;2023-02-28T01:13:43;2.03;;;2.03;;
9270;SDS011;4673;53.458;9.940;2023-02-28T01:16:09;1.80;;;1.80;;
9270;SDS011;4673;53.458;9.940;2023-02-28T01:18:35;2.10;;;2.10;;
9270;SDS011;4673;53.458;9.940;2023-02-28T01:21:05;2.00;;;2.00;;
9270;SDS011;4673;53.458;9.940;2023-02-28T01:23:32;1.90;;;1.90;;
9270;SDS011;4673;53.458;9.940;2023-02-28T01:26:03;2.07;;;2.07;;
9270;SDS011;4673;53.458;9.940;2023-02-28T01:28:33;1.60;;;1.60;;
9270;SDS011;4673;53.458;9.940;2023-02-28T01:30:59;1.93;;;1.93;;
9270;SDS011;4673;53.458;9.940;2023-02-28T01:33:25;1.50;;;1.50;;
9270;SDS011;4673;53.458;9.940;2023-02-28T01:36:02;2.30;;;2.30;;
9270;SDS011;4673;53.458;9.940;2023-02-28T01:38:31;2.57;;;2.57;;
9270;SDS011;4673;53.458;9.940;2023-02-28T01:40:57;2.40;;;2.40;;
9270;SDS011;4673;53.458;9.940;2023-02-28T01:43:24;2.40;;;2.40;;
9270;SDS011;4673;53.458;9.940;2023-02-28T01:46:14;2.27;;;2.27;;
9270;SDS011;4673;53.458;9.940;2023-02-28T01:48:44;2.10;;;2.10;;
9270;SDS011;4673;53.458;9.940;2023-02-28T01:51:15;2.77;;;2.77;;
9270;SDS011;4673;53.458;9.940;2023-02-28T01:53:56;2.40;;;2.40;;
9270;SDS011;4673;53.458;9.940;2023-02-28T01:56:28;2.80;;;2.80;;
9270;SDS011;4673;53.458;9.940;2023-02-28T01:58:58;2.50;;;2.50;;
9270;SDS011;4673;53.458;9.940;2023-02-28T02:01:24;2.70;;;2.70;;
9270;SDS011;4673;53.458;9.940;2023-02-28T02:03:56;3.30;;;3.30;;
9270;SDS011;4673;53.458;9.940;2023-02-28T02:06:29;3.03;;;3.03;;
9270;SDS011;4673;53.458;9.940;2023-02-28T02:09:00;2.87;;;2.87;;
9270;SDS011;4673;53.458;9.940;2023-02-28T02:11:27;3.30;;;3.30;;
9270;SDS011;4673;53.458;9.940;2023-02-28T02:14:10;3.00;;;3.00;;
9270;SDS011;4673;53.458;9.940;2023-02-28T02:33:19;2.53;;;2.53;;
9270;SDS011;4673;53.458;9.940;2023-02-28T02:44:15;3.00;;;3.00;;
9270;SDS011;4673;53.458;9.940;2023-02-28T02:46:31;2.73;;;2.73;;
9270;SDS011;4673;53.458;9.940;2023-02-28T02:49:00;3.03;;;3.03;;
9270;SDS011;4673;53.458;9.940;2023-02-28T02:51:30;2.97;;;2.97;;
9270;SDS011;4673;53.458;9.940;2023-02-28T02:54:00;3.00;;;3.00;;
9270;SDS011;4673;53.458;9.940;2023-02-28T02:56:31;2.70;;;2.70;;
9270;SDS011;4673;53.458;9.940;2023-02-28T02:59:04;2.90;;;2.90;;
9270;SDS011;4673;53.458;9.940;2023-02-28T03:01:35;2.83;;;2.83;;
9270;SDS011;4673;53.458;9.940;2023-02-28T03:04:03;2.93;;;2.93;;
9270;SDS011;4673;53.458;9.940;2023-02-28T03:06:35;2.90;;;2.90;;
9270;SDS011;4673;53.458;9.940;2023-02-28T03:09:01;2.87;;;2.87;;
9270;SDS011;4673;53.458;9.940;2023-02-28T03:11:27;3.20;;;3.20;;
9270;SDS011;4673;53.458;9.940;2023-02-28T03:27:53;2.80;;;2.80;;
9270;SDS011;4673;53.458;9.940;2023-02-28T03:30:49;3.00;;;3.00;;
9270;SDS011;4673;53.458;9.940;2023-02-28T03:36:16;2.30;;;2.30;;
9270;SDS011;4673;53.458;9.940;2023-02-28T03:38:55;2.27;;;2.27;;
9270;SDS011;4673;53.458;9.940;2023-02-28T03:41:43;2.23;;;2.23;;
9270;SDS011;4673;53.458;9.940;2023-02-28T03:44:16;2.53;;;2.53;;
9270;SDS011;4673;53.458;9.940;2023-02-28T03:46:58;2.33;;;2.33;;
9270;SDS011;4673;53.458;9.940;2023-02-28T03:49:50;2.47;;;2.47;;
9270;SDS011;4673;53.458;9.940;2023-02-28T03:52:22;2.00;;;2.00;;
9270;SDS011;4673;53.458;9.940;2023-02-28T03:54:54;2.30;;;2.30;;
9270;SDS011;4673;53.458;9.940;2023-02-28T03:59:57;2.10;;;2.10;;
9270;SDS011;4673;53.458;9.940;2023-02-28T04:02:29;2.30;;;2.30;;
9270;SDS011;4673;53.458;9.940;2023-02-28T04:04:55;1.97;;;1.97;;
9270;SDS011;4673;53.458;9.940;2023-02-28T04:07:20;2.43;;;2.43;;
9270;SDS011;4673;53.458;9.940;2023-02-28T04:09:46;2.30;;;2.30;;
9270;SDS011;4673;53.458;9.940;2023-02-28T04:12:12;2.30;;;2.30;;
9270;SDS011;4673;53.458;9.940;2023-02-28T04:14:37;2.17;;;2.17;;
9270;SDS011;4673;53.458;9.940;2023-02-28T04:17:03;2.23;;;2.23;;
9270;SDS011;4673;53.458;9.940;2023-02-28T04:19:29;2.50;;;2.50;;
9270;SDS011;4673;53.458;9.940;2023-02-28T04:21:54;2.43;;;2.43;;
9270;SDS011;4673;53.458;9.940;2023-02-28T04:24:24;2.47;;;2.47;;
9270;SDS011;4673;53.458;9.940;2023-02-28T04:26:52;2.53;;;2.53;;
9270;SDS011;4673;53.458;9.940;2023-02-28T04:29:23;2.60;;;2.60;;
9270;SDS011;4673;53.458;9.940;2023-02-28T04:31:51;2.40;;;2.40;;
9270;SDS011;4673;53.458;9.940;2023-02-28T04:34:18;2.50;;;2.50;;
9270;SDS011;4673;53.458;9.940;2023-02-28T04:36:44;2.37;;;2.37;;
9270;SDS011;4673;53.458;9.940;2023-02-28T04:39:11;2.43;;;2.43;;
9270;SDS011;4673;53.458;9.940;2023-02-28T04:41:37;1.67;;;1.67;;
9270;SDS011;4673;53.458;9.940;2023-02-28T04:44:03;2.00;;;2.00;;
9270;SDS011;4673;53.458;9.940;2023-02-28T04:46:28;2.13;;;2.13;;
9270;SDS011;4673;53.458;9.940;2023-02-28T04:48:55;1.70;;;1.70;;
9270;SDS011;4673;53.458;9.940;2023-02-28T04:51:21;2.27;;;2.27;;
9270;SDS011;4673;53.458;9.940;2023-02-28T04:53:47;2.27;;;2.27;;
9270;SDS011;4673;53.458;9.940;2023-02-28T04:56:13;1.90;;;1.90;;
9270;SDS011;4673;53.458;9.940;2023-02-28T04:58:40;2.03;;;2.03;;
9270;SDS011;4673;53.458;9.940;2023-02-28T05:03:47;1.93;;;1.93;;
9270;SDS011;4673;53.458;9.940;2023-02-28T05:06:13;2.03;;;2.03;;
9270;SDS011;4673;53.458;9.940;2023-02-28T05:08:39;2.53;;;2.53;;
9270;SDS011;4673;53.458;9.940;2023-02-28T05:11:18;1.80;;;1.80;;
9270;SDS011;4673;53.458;9.940;2023-02-28T05:13:47;2.30;;;2.30;;
9270;SDS011;4673;53.458;9.940;2023-02-28T05:16:13;2.13;;;2.13;;
9270;SDS011;4673;53.458;9.940;2023-02-28T05:18:40;2.13;;;2.13;;
9270;SDS011;4673;53.458;9.940;2023-02-28T05:21:06;2.00;;;2.00;;
9270;SDS011;4673;53.458;9.940;2023-02-28T05:23:50;2.07;;;2.07;;
9270;SDS011;4673;53.458;9.940;2023-02-28T05:26:18;2.20;;;2.20;;
9270;SDS011;4673;53.458;9.940;2023-02-28T05:28:44;2.10;;;2.10;;
9270;SDS011;4673;53.458;9.940;2023-02-28T05:31:10;1.83;;;1.83;;
9270;SDS011;4673;53.458;9.940;2023-02-28T05:33:36;1.90;;;1.90;;
9270;SDS011;4673;53.458;9.940;2023-02-28T05:36:02;1.93;;;1.93;;
9270;SDS011;4673;53.458;9.940;2023-02-28T05:38:28;1.57;;;1.57;;
9270;SDS011;4673;53.458;9.940;2023-02-28T05:40:54;1.57;;;1.57;;
9270;SDS011;4673;53.458;9.940;2023-02-28T05:43:19;1.60;;;1.60;;
9270;SDS011;4673;53.458;9.940;2023-02-28T05:45:45;1.90;;;1.90;;
9270;SDS011;4673;53.458;9.940;2023-02-28T05:48:10;2.17;;;2.17;;
9270;SDS011;4673;53.458;9.940;2023-02-28T05:50:36;2.23;;;2.23;;
9270;SDS011;4673;53.458;9.940;2023-02-28T05:53:02;1.70;;;1.70;;
9270;SDS011;4673;53.458;9.940;2023-02-28T05:55:28;2.20;;;2.20;;
9270;SDS011;4673;53.458;9.940;2023-02-28T05:57:54;2.13;;;2.13;;
9270;SDS011;4673;53.458;9.940;2023-02-28T06:00:20;1.77;;;1.77;;
9270;SDS011;4673;53.458;9.940;2023-02-28T06:02:45;2.00;;;2.00;;
9270;SDS011;4673;53.458;9.940;2023-02-28T06:05:15;2.00;;;2.00;;
9270;SDS011;4673;53.458;9.940;2023-02-28T06:07:42;2.43;;;2.43;;
9270;SDS011;4673;53.458;9.940;2023-02-28T06:10:09;2.13;;;2.13;;
9270;SDS011;4673;53.458;9.940;2023-02-28T06:12:36;2.20;;;2.20;;
9270;SDS011;4673;53.458;9.940;2023-02-28T06:15:02;2.43;;;2.43;;
9270;SDS011;4673;53.458;9.940;2023-02-28T06:17:28;2.00;;;2.00;;
9270;SDS011;4673;53.458;9.940;2023-02-28T06:19:54;2.30;;;2.30;;
9270;SDS011;4673;53.458;9.940;2023-02-28T06:22:19;2.37;;;2.37;;
9270;SDS011;4673;53.458;9.940;2023-02-28T06:24:45;2.23;;;2.23;;
9270;SDS011;4673;53.458;9.940;2023-02-28T06:27:11;2.50;;;2.50;;
9270;SDS011;4673;53.458;9.940;2023-02-28T06:29:36;2.70;;;2.70;;
9270;SDS011;4673;53.458;9.940;2023-02-28T06:32:04;3.00;;;3.00;;
9270;SDS011;4673;53.458;9.940;2023-02-28T06:34:30;2.90;;;2.90;;
9270;SDS011;4673;53.458;9.940;2023-02-28T06:36:56;3.47;;;3.47;;
9270;SDS011;4673;53.458;9.940;2023-02-28T06:39:22;3.37;;;3.37;;
9270;SDS011;4673;53.458;9.940;2023-02-28T06:41:47;3.27;;;3.27;;
9270;SDS011;4673;53.458;9.940;2023-02-28T06:44:14;3.80;;;3.80;;
9270;SDS011;4673;53.458;9.940;2023-02-28T06:46:41;3.93;;;3.93;;
9270;SDS011;4673;53.458;9.940;2023-02-28T06:49:08;3.80;;;3.80;;
9270;SDS011;4673;53.458;9.940;2023-02-28T06:51:35;3.67;;;3.67;;
9270;SDS011;4673;53.458;9.940;2023-02-28T06:54:05;4.20;;;4.20;;
9270;SDS011;4673;53.458;9.940;2023-02-28T06:56:34;3.50;;;3.50;;
9270;SDS011;4673;53.458;9.940;2023-02-28T06:59:00;3.90;;;3.90;;
9270;SDS011;4673;53.458;9.940;2023-02-28T07:01:26;4.43;;;4.43;;
9270;SDS011;4673;53.458;9.940;2023-02-28T07:03:53;3.40;;;3.40;;
9270;SDS011;4673;53.458;9.940;2023-02-28T07:06:19;3.27;;;3.27;;
9270;SDS011;4673;53.458;9.940;2023-02-28T07:08:47;3.10;;;3.10;;
9270;SDS011;4673;53.458;9.940;2023-02-28T07:11:13;3.60;;;3.60;;
9270;SDS011;4673;53.458;9.940;2023-02-28T07:13:39;4.53;;;4.53;;
9270;SDS011;4673;53.458;9.940;2023-02-28T07:16:06;3.83;;;3.83;;
9270;SDS011;4673;53.458;9.940;2023-02-28T07:18:34;3.80;;;3.80;;
9270;SDS011;4673;53.458;9.940;2023-02-28T07:21:04;4.27;;;4.27;;
9270;SDS011;4673;53.458;9.940;2023-02-28T07:23:32;4.93;;;4.93;;
9270;SDS011;4673;53.458;9.940;2023-02-28T07:25:57;4.10;;;4.10;;
9270;SDS011;4673;53.458;9.940;2023-02-28T07:28:23;4.73;;;4.73;;
9270;SDS011;4673;53.458;9.940;2023-02-28T07:30:49;4.63;;;4.63;;
9270;SDS011;4673;53.458;9.940;2023-02-28T07:33:15;4.53;;;4.53;;
9270;SDS011;4673;53.458;9.940;2023-02-28T07:35:40;4.97;;;4.97;;
9270;SDS011;4673;53.458;9.940;2023-02-28T07:38:06;4.43;;;4.43;;
9270;SDS011;4673;53.458;9.940;2023-02-28T07:40:32;4.23;;;4.23;;
9270;SDS011;4673;53.458;9.940;2023-02-28T07:43:00;4.07;;;4.07;;
9270;SDS011;4673;53.458;9.940;2023-02-28T07:45:26;4.33;;;4.33;;
9270;SDS011;4673;53.458;9.940;2023-02-28T07:47:53;3.97;;;3.97;;
9270;SDS011;4673;53.458;9.940;2023-02-28T07:50:20;3.67;;;3.67;;
9270;SDS011;4673;53.458;9.940;2023-02-28T07:52:45;3.60;;;3.60;;
9270;SDS011;4673;53.458;9.940;2023-02-28T07:55:11;3.33;;;3.33;;
9270;SDS011;4673;53.458;9.940;2023-02-28T07:57:38;3.40;;;3.40;;
9270;SDS011;4673;53.458;9.940;2023-02-28T08:00:05;2.47;;;2.47;;
9270;SDS011;4673;53.458;9.940;2023-02-28T08:02:34;3.03;;;3.03;;
9270;SDS011;4673;53.458;9.940;2023-02-28T08:05:00;2.80;;;2.80;;
9270;SDS011;4673;53.458;9.940;2023-02-28T08:07:26;2.50;;;2.50;;
9270;SDS011;4673;53.458;9.940;2023-02-28T08:09:52;2.20;;;2.20;;
9270;SDS011;4673;53.458;9.940;2023-02-28T08:12:17;2.40;;;2.40;;
9270;SDS011;4673;53.458;9.940;2023-02-28T08:14:43;2.23;;;2.23;;
9270;SDS011;4673;53.458;9.940;2023-02-28T08:17:09;2.80;;;2.80;;
9270;SDS011;4673;53.458;9.940;2023-02-28T08:19:35;2.13;;;2.13;;
9270;SDS011;4673;53.458;9.940;2023-02-28T08:22:01;2.10;;;2.10;;
9270;SDS011;4673;53.458;9.940;2023-02-28T08:24:27;2.33;;;2.33;;
9270;SDS011;4673;53.458;9.940;2023-02-28T08:26:53;2.60;;;2.60;;
9270;SDS011;4673;53.458;9.940;2023-02-28T08:29:19;2.10;;;2.10;;
9270;SDS011;4673;53.458;9.940;2023-02-28T08:31:45;2.40;;;2.40;;
9270;SDS011;4673;53.458;9.940;2023-02-28T08:34:11;2.40;;;2.40;;
9270;SDS011;4673;53.458;9.940;2023-02-28T08:36:39;2.30;;;2.30;;
9270;SDS011;4673;53.458;9.940;2023-02-28T08:39:05;2.00;;;2.00;;
9270;SDS011;4673;53.458;9.940;2023-02-28T08:41:31;2.30;;;2.30;;
9270;SDS011;4673;53.458;9.940;2023-02-28T08:43:57;2.77;;;2.77;;
9270;SDS011;4673;53.458;9.940;2023-02-28T08:46:23;2.80;;;2.80;;
9270;SDS011;4673;53.458;9.940;2023-02-28T08:48:53;2.27;;;2.27;;
9270;SDS011;4673;53.458;9.940;2023-02-28T08:51:21;1.80;;;1.80;;
9270;SDS011;4673;53.458;9.940;2023-02-28T08:53:51;2.40;;;2.40;;
9270;SDS011;4673;53.458;9.940;2023-02-28T08:56:18;2.37;;;2.37;;
9270;SDS011;4673;53.458;9.940;2023-02-28T08:58:44;1.93;;;1.93;;
9270;SDS011;4673;53.458;9.940;2023-02-28T09:01:15;2.10;;;2.10;;
9270;SDS011;4673;53.458;9.940;2023-02-28T09:03:42;1.80;;;1.80;;
9270;SDS011;4673;53.458;9.940;2023-02-28T09:06:09;1.83;;;1.83;;
9270;SDS011;4673;53.458;9.940;2023-02-28T09:08:36;1.90;;;1.90;;
9270;SDS011;4673;53.458;9.940;2023-02-28T09:11:02;2.00;;;2.00;;
9270;SDS011;4673;53.458;9.940;2023-02-28T09:13:28;1.90;;;1.90;;
9270;SDS011;4673;53.458;9.940;2023-02-28T09:15:56;2.67;;;2.67;;
9270;SDS011;4673;53.458;9.940;2023-02-28T09:18:23;2.93;;;2.93;;
9270;SDS011;4673;53.458;9.940;2023-02-28T09:20:49;3.87;;;3.87;;
9270;SDS011;4673;53.458;9.940;2023-02-28T09:23:15;3.20;;;3.20;;
9270;SDS011;4673;53.458;9.940;2023-02-28T09:25:45;3.83;;;3.83;;
9270;SDS011;4673;53.458;9.940;2023-02-28T09:28:12;3.23;;;3.23;;
9270;SDS011;4673;53.458;9.940;2023-02-28T09:30:41;3.70;;;3.70;;
9270;SDS011;4673;53.458;9.940;2023-02-28T09:33:07;3.30;;;3.30;;
9270;SDS011;4673;53.458;9.940;2023-02-28T09:35:33;3.93;;;3.93;;
9270;SDS011;4673;53.458;9.940;2023-02-28T09:37:58;3.00;;;3.00;;
9270;SDS011;4673;53.458;9.940;2023-02-28T09:40:24;3.60;;;3.60;;
9270;SDS011;4673;53.458;9.940;2023-02-28T09:42:51;3.30;;;3.30;;
9270;SDS011;4673;53.458;9.940;2023-02-28T09:47:50;3.57;;;3.57;;
9270;SDS011;4673;53.458;9.940;2023-02-28T09:52:51;3.03;;;3.03;;
9270;SDS011;4673;53.458;9.940;2023-02-28T09:55:24;3.10;;;3.10;;
9270;SDS011;4673;53.458;9.940;2023-02-28T09:57:58;4.07;;;4.07;;
9270;SDS011;4673;53.458;9.940;2023-02-28T10:00:36;3.03;;;3.03;;
9270;SDS011;4673;53.458;9.940;2023-02-28T10:06:07;3.27;;;3.27;;
9270;SDS011;4673;53.458;9.940;2023-02-28T10:09:02;3.97;;;3.97;;
9270;SDS011;4673;53.458;9.940;2023-02-28T10:11:38;2.67;;;2.67;;
9270;SDS011;4673;53.458;9.940;2023-02-28T10:14:22;2.37;;;2.37;;
9270;SDS011;4673;53.458;9.940;2023-02-28T10:17:00;1.90;;;1.90;;
9270;SDS011;4673;53.458;9.940;2023-02-28T10:19:31;2.17;;;2.17;;
9270;SDS011;4673;53.458;9.940;2023-02-28T10:22:24;2.73;;;2.73;;
9270;SDS011;4673;53.458;9.940;2023-02-28T10:24:51;2.30;;;2.30;;
9270;SDS011;4673;53.458;9.940;2023-02-28T10:27:22;2.27;;;2.27;;
9270;SDS011;4673;53.458;9.940;2023-02-28T10:29:51;1.93;;;1.93;;
9270;SDS011;4673;53.458;9.940;2023-02-28T10:32:19;2.57;;;2.57;;
9270;SDS011;4673;53.458;9.940;2023-02-28T10:34:51;3.07;;;3.07;;
9270;SDS011;4673;53.458;9.940;2023-02-28T10:37:30;2.07;;;2.07;;
9270;SDS011;4673;53.458;9.940;2023-02-28T10:39:57;2.30;;;2.30;;
9270;SDS011;4673;53.458;9.940;2023-02-28T10:42:26;1.83;;;1.83;;
9270;SDS011;4673;53.458;9.940;2023-02-28T10:53:10;2.00;;;2.00;;
9270;SDS011;4673;53.458;9.940;2023-02-28T10:55:43;2.10;;;2.10;;
9270;SDS011;4673;53.458;9.940;2023-02-28T11:01:23;1.80;;;1.80;;
9270;SDS011;4673;53.458;9.940;2023-02-28T11:03:58;2.13;;;2.13;;
9270;SDS011;4673;53.458;9.940;2023-02-28T11:08:58;1.40;;;1.40;;
9270;SDS011;4673;53.458;9.940;2023-02-28T11:11:28;1.60;;;1.60;;
9270;SDS011;4673;53.458;9.940;2023-02-28T11:13:57;2.10;;;2.10;;
9270;SDS011;4673;53.458;9.940;2023-02-28T11:16:33;2.10;;;2.10;;
9270;SDS011;4673;53.458;9.940;2023-02-28T11:19:00;2.13;;;2.13;;
9270;SDS011;4673;53.458;9.940;2023-02-28T11:21:30;1.80;;;1.80;;
9270;SDS011;4673;53.458;9.940;2023-02-28T11:24:06;1.70;;;;;
9270;SDS011;4673;53.458;9.940;2023-02-28T11:26:47;2.13;;;2.13;;
9270;SDS011;4673;53.458;9.940;2023-02-28T11:29:27;2.13;;;2.13;;
9270;SDS011;4673;53.458;9.940;2023-02-28T11:35:03;2.00;;;2.00;;
9270;SDS011;4673;53.458;9.940;2023-02-28T11:37:39;1.57;;;1.57;;
9270;SDS011;4673;53.458;9.940;2023-02-28T11:40:08;1.73;;;1.73;;
9270;SDS011;4673;53.458;9.940;2023-02-28T11:45:30;1.70;;;1.70;;
9270;SDS011;4673;53.458;9.940;2023-02-28T11:48:16;1.50;;;1.50;;
9270;SDS011;4673;53.458;9.940;2023-02-28T11:56:43;1.50;;;1.50;;
9270;SDS011;4673;53.458;9.940;2023-02-28T12:04:39;1.60;;;1.60;;
9270;SDS011;4673;53.458;9.940;2023-02-28T12:18:47;1.10;;;1.10;;
9270;SDS011;4673;53.458;9.940;2023-02-28T12:21:37;1.23;;;1.23;;
9270;SDS011;4673;53.458;9.940;2023-02-28T12:27:05;1.33;;;1.33;;
9270;SDS011;4673;53.458;9.940;2023-02-28T12:29:58;1.17;;;1.17;;
9270;SDS011;4673;53.458;9.940;2023-02-28T12:32:33;1.27;;;1.27;;
9270;SDS011;4673;53.458;9.940;2023-02-28T12:37:38;1.30;;;1.30;;
9270;SDS011;4673;53.458;9.940;2023-02-28T12:40:27;1.30;;;1.30;;
9270;SDS011;4673;53.458;9.940;2023-02-28T12:43:03;1.70;;;1.70;;
9270;SDS011;4673;53.458;9.940;2023-02-28T12:48:06;1.37;;;1.37;;
9270;SDS011;4673;53.458;9.940;2023-02-28T12:50:35;1.27;;;1.27;;
9270;SDS011;4673;53.458;9.940;2023-02-28T12:53:09;1.27;;;1.27;;
9270;SDS011;4673;53.458;9.940;2023-02-28T13:09:05;1.13;;;1.13;;
9270;SDS011;4673;53.458;9.940;2023-02-28T13:11:39;1.10;;;1.10;;
9270;SDS011;4673;53.458;9.940;2023-02-28T13:14:06;1.30;;;1.30;;
9270;SDS011;4673;53.458;9.940;2023-02-28T13:16:48;1.37;;;1.37;;
9270;SDS011;4673;53.458;9.940;2023-02-28T13:19:29;1.20;;;1.20;;
9270;SDS011;4673;53.458;9.940;2023-02-28T13:21:57;1.03;;;1.03;;
9270;SDS011;4673;53.458;9.940;2023-02-28T13:24:44;1.30;;;1.30;;
9270;SDS011;4673;53.458;9.940;2023-02-28T13:27:10;1.30;;;1.30;;
9270;SDS011;4673;53.458;9.940;2023-02-28T13:29:50;1.10;;;1.10;;
9270;SDS011;4673;53.458;9.940;2023-02-28T13:39:54;1.30;;;1.30;;
9270;SDS011;4673;53.458;9.940;2023-02-28T13:45:21;1.10;;;1.10;;
9270;SDS011;4673;53.458;9.940;2023-02-28T13:50:21;1.00;;;1.00;;
9270;SDS011;4673;53.458;9.940;2023-02-28T13:53:12;1.57;;;1.57;;
9270;SDS011;4673;53.458;9.940;2023-02-28T14:06:57;1.20;;;1.20;;
9270;SDS011;4673;53.458;9.940;2023-02-28T14:09:25;1.53;;;1.53;;
9270;SDS011;4673;53.458;9.940;2023-02-28T14:12:50;1.40;;;1.40;;
9270;SDS011;4673;53.458;9.940;2023-02-28T14:15:04;1.50;;;1.50;;
9270;SDS011;4673;53.458;9.940;2023-02-28T14:17:53;1.13;;;1.13;;
9270;SDS011;4673;53.458;9.940;2023-02-28T14:20:21;1.20;;;1.20;;
9270;SDS011;4673;53.458;9.940;2023-02-28T14:25:40;1.17;;;1.17;;
9270;SDS011;4673;53.458;9.940;2023-02-28T14:28:27;1.83;;;1.83;;
9270;SDS011;4673;53.458;9.940;2023-02-28T14:31:10;1.40;;;1.40;;
9270;SDS011;4673;53.458;9.940;2023-02-28T14:36:31;1.77;;;1.77;;
9270;SDS011;4673;53.458;9.940;2023-02-28T14:39:01;1.60;;;1.60;;
9270;SDS011;4673;53.458;9.940;2023-02-28T14:41:41;1.50;;;1.50;;
9270;SDS011;4673;53.458;9.940;2023-02-28T14:47:00;1.50;;;1.50;;
9270;SDS011;4673;53.458;9.940;2023-02-28T14:49:41;1.70;;;1.70;;
9270;SDS011;4673;53.458;9.940;2023-02-28T14:52:20;2.17;;;2.17;;
9270;SDS011;4673;53.458;9.940;2023-02-28T14:54:51;1.70;;;1.70;;
9270;SDS011;4673;53.458;9.940;2023-02-28T15:02:24;1.67;;;1.67;;
9270;SDS011;4673;53.458;9.940;2023-02-28T15:04:56;1.77;;;1.77;;
9270;SDS011;4673;53.458;9.940;2023-02-28T15:07:23;1.70;;;1.70;;
9270;SDS011;4673;53.458;9.940;2023-02-28T15:10:10;2.20;;;2.20;;
9270;SDS011;4673;53.458;9.940;2023-02-28T15:12:40;1.50;;;1.50;;
9270;SDS011;4673;53.458;9.940;2023-02-28T15:15:16;1.63;;;1.63;;
9270;SDS011;4673;53.458;9.940;2023-02-28T15:17:45;1.90;;;1.90;;
9270;SDS011;4673;53.458;9.940;2023-02-28T15:20:15;1.50;;;1.50;;
9270;SDS011;4673;53.458;9.940;2023-02-28T15:22:43;1.40;;;1.40;;
9270;SDS011;4673;53.458;9.940;2023-02-28T15:25:11;1.47;;;1.47;;
9270;SDS011;4673;53.458;9.940;2023-02-28T15:27:43;1.63;;;1.63;;
9270;SDS011;4673;53.458;9.940;2023-02-28T15:30:15;1.77;;;1.77;;
9270;SDS011;4673;53.458;9.940;2023-02-28T15:32:46;1.43;;;1.43;;
9270;SDS011;4673;53.458;9.940;2023-02-28T15:35:33;1.70;;;1.70;;
9270;SDS011;4673;53.458;9.940;2023-02-28T15:40:42;1.70;;;1.70;;
9270;SDS011;4673;53.458;9.940;2023-02-28T15:43:31;1.70;;;1.70;;
9270;SDS011;4673;53.458;9.940;2023-02-28T15:45:59;1.83;;;1.83;;
9270;SDS011;4673;53.458;9.940;2023-02-28T15:48:38;1.40;;;1.40;;
9270;SDS011;4673;53.458;9.940;2023-02-28T15:51:20;1.57;;;1.57;;
9270;SDS011;4673;53.458;9.940;2023-02-28T15:54:08;2.30;;;2.30;;
9270;SDS011;4673;53.458;9.940;2023-02-28T15:56:43;1.93;;;1.93;;
9270;SDS011;4673;53.458;9.940;2023-02-28T15:59:18;1.93;;;1.93;;
9270;SDS011;4673;53.458;9.940;2023-02-28T16:02:19;1.43;;;1.43;;
9270;SDS011;4673;53.458;9.940;2023-02-28T16:05:00;2.00;;;2.00;;
9270;SDS011;4673;53.458;9.940;2023-02-28T16:07:36;1.53;;;1.53;;
9270;SDS011;4673;53.458;9.940;2023-02-28T16:10:04;1.57;;;1.57;;
9270;SDS011;4673;53.458;9.940;2023-02-28T16:12:33;1.80;;;1.80;;
9270;SDS011;4673;53.458;9.940;2023-02-28T16:15:00;1.70;;;1.70;;
9270;SDS011;4673;53.458;9.940;2023-02-28T16:17:31;1.97;;;1.97;;
9270;SDS011;4673;53.458;9.940;2023-02-28T16:19:59;1.50;;;1.50;;
9270;SDS011;4673;53.458;9.940;2023-02-28T16:22:25;1.60;;;1.60;;
9270;SDS011;4673;53.458;9.940;2023-02-28T16:24:51;1.70;;;1.70;;
9270;SDS011;4673;53.458;9.940;2023-02-28T16:29:50;1.40;;;1.40;;
9270;SDS011;4673;53.458;9.940;2023-02-28T16:32:15;1.47;;;1.47;;
9270;SDS011;4673;53.458;9.940;2023-02-28T16:34:42;1.57;;;1.57;;
9270;SDS011;4673;53.458;9.940;2023-02-28T16:39:36;1.40;;;1.40;;
9270;SDS011;4673;53.458;9.940;2023-02-28T16:42:02;1.97;;;1.97;;
9270;SDS011;4673;53.458;9.940;2023-02-28T16:44:32;2.07;;;2.07;;
9270;SDS011;4673;53.458;9.940;2023-02-28T16:46:59;2.03;;;2.03;;
9270;SDS011;4673;53.458;9.940;2023-02-28T16:49:27;1.77;;;1.77;;
9270;SDS011;4673;53.458;9.940;2023-02-28T16:51:52;1.93;;;1.93;;
9270;SDS011;4673;53.458;9.940;2023-02-28T16:54:18;1.73;;;1.73;;
9270;SDS011;4673;53.458;9.940;2023-02-28T16:56:45;1.70;;;1.70;;
9270;SDS011;4673;53.458;9.940;2023-02-28T16:59:12;2.07;;;2.07;;
9270;SDS011;4673;53.458;9.940;2023-02-28T17:01:46;2.50;;;2.50;;
9270;SDS011;4673;53.458;9.940;2023-02-28T17:04:12;1.93;;;1.93;;
9270;SDS011;4673;53.458;9.940;2023-02-28T17:06:39;2.07;;;2.07;;
9270;SDS011;4673;53.458;9.940;2023-02-28T17:09:05;2.20;;;2.20;;
9270;SDS011;4673;53.458;9.940;2023-02-28T17:11:33;2.07;;;2.07;;
9270;SDS011;4673;53.458;9.940;2023-02-28T17:13:59;2.07;;;2.07;;
9270;SDS011;4673;53.458;9.940;2023-02-28T17:16:25;1.83;;;1.83;;
9270;SDS011;4673;53.458;9.940;2023-02-28T17:18:56;2.73;;;2.73;;
9270;SDS011;4673;53.458;9.940;2023-02-28T17:21:30;2.23;;;2.23;;
9270;SDS011;4673;53.458;9.940;2023-02-28T17:23:56;2.83;;;2.83;;
9270;SDS011;4673;53.458;9.940;2023-02-28T17:26:22;3.70;;;3.70;;
9270;SDS011;4673;53.458;9.940;2023-02-28T17:28:52;3.10;;;3.10;;
9270;SDS011;4673;53.458;9.940;2023-02-28T17:31:20;2.77;;;2.77;;
9270;SDS011;4673;53.458;9.940;2023-02-28T17:33:46;3.17;;;3.17;;
9270;SDS011;4673;53.458;9.940;2023-02-28T17:36:13;3.07;;;3.07;;
9270;SDS011;4673;53.458;9.940;2023-02-28T17:38:41;2.47;;;2.47;;
9270;SDS011;4673;53.458;9.940;2023-02-28T17:41:10;2.90;;;2.90;;
9270;SDS011;4673;53.458;9.940;2023-02-28T17:43:36;3.10;;;3.10;;
9270;SDS011;4673;53.458;9.940;2023-02-28T17:46:02;2.87;;;2.87;;
9270;SDS011;4673;53.458;9.940;2023-02-28T17:48:30;4.07;;;4.07;;
9270;SDS011;4673;53.458;9.940;2023-02-28T17:50:56;3.87;;;3.87;;
9270;SDS011;4673;53.458;9.940;2023-02-28T17:53:21;4.57;;;4.57;;
9270;SDS011;4673;53.458;9.940;2023-02-28T17:55:48;4.63;;;4.63;;
9270;SDS011;4673;53.458;9.940;2023-02-28T17:58:14;4.07;;;4.07;;
9270;SDS011;4673;53.458;9.940;2023-02-28T18:00:40;5.80;;;5.80;;
9270;SDS011;4673;53.458;9.940;2023-02-28T18:03:05;5.17;;;5.17;;
9270;SDS011;4673;53.458;9.940;2023-02-28T18:05:31;4.97;;;4.97;;
9270;SDS011;4673;53.458;9.940;2023-02-28T18:07:57;5.10;;;5.10;;
9270;SDS011;4673;53.458;9.940;2023-02-28T18:10:23;5.00;;;5.00;;
9270;SDS011;4673;53.458;9.940;2023-02-28T18:12:50;5.00;;;5.00;;
9270;SDS011;4673;53.458;9.940;2023-02-28T18:15:17;5.43;;;5.43;;